Batumi International Airport
UGSB : rendu visible

Aérodrome :











RETROUVEZ-NOUS SUR...

 
LOGIN :

S'inscrire | Disclaimer

   EN    FR    IT 

 









Légende :    VFR   VFR Marginal   IFR   IFR Intensif   IFR Très Intensif
Visi : 
Plafond : 
>= 8 km
>= 3000ft
5 à 8 km
1000 à 3000 ft
1500m à 5 km
500 à 1000 ft
800 à 1500m
200 à 500 ft
< 800m
< 200 ft
Symboles :   Orages  Brouillard  Fortes neiges  Fortes précipitations  Vent > 20 kt







- Altitude de l'aérodrome : 105 ft
- Code IATA : BUS


UGSB - Batumi International

DERNIER METAR :
  • 200900Z 35009KT 9999 FEW130 24/19 Q1015 NOSIG

METARs EXPIRÉS :
  • 200830Z 01008KT 9999 FEW120 25/18 Q1015 NOSIG
  • 200800Z 34008KT 9999 SCT120 24/20 Q1016 NOSIG
  • 200730Z 36007KT 9999 SCT120 25/19 Q1016 NOSIG
  • 200700Z 16006KT 120V210 9999 SCT100 25/18 Q1016 NOSIG
  • 200630Z VRB03KT 9999 SCT100 24/17 Q1016 NOSIG

TAF TAF UGSB
Valide du 20 à 06h jusqu'au 21 à 06h UTC


200500Z 2006/2106 22007KT 9999 FEW030 BKN100 TX25/2011Z TN19/2100Z
TEMPO 2011/2018 VRB12KT TSRA SCT014CB
BECMG 2018/2021 13010KT
FIR UGGG / Asie



MET'MAP, la Météo Aéronautique d'un coup d'oeil ! - Copyright ORBIFLY Décembre 2007 - Disclaimer

ORBIFLY MET'MAP TEAM :

Programmation & Développement : Alexandra Zaïnal
Conception & Développement : Baudouin d'Aumeries
Co-Programmation & Développement : Marc-Olivier Méhu
Soutien technique & logistique : Manuel Goepfert

Contact : metmap@orbifly.com




SOURCES & CREDITS :

   NOAA       Earth
Advisory